Time;durP1;ratioP1;P1;durP2;ratioP2;P2;SDS_P1;SDS_P2;PMS_P1;PMS_P2;Temp;Humidity;BMP_temperature;BMP_pressure;BME280_temperature;BME280_humidity;BME280_pressure;Samples;Min_cycle;Max_cycle;Signal;HPM_P1;HPM_P2
2023/05/28 00:00:11;;;;;;;20.58;7.53;;;11.70;99.90;;;;;;5099354;28;20104;-82
2023/05/28 00:02:37;;;;;;;23.38;8.63;;;11.70;99.90;;;;;;5099483;28;20395;-84
2023/05/28 00:05:03;;;;;;;26.08;7.88;;;11.70;99.90;;;;;;5099102;28;20513;-84
2023/05/28 00:07:30;;;;;;;32.42;7.80;;;11.80;99.90;;;;;;5099343;28;20043;-84
2023/05/28 00:09:59;;;;;;;27.10;7.20;;;11.80;99.90;;;;;;5099223;28;20097;-85
2023/05/28 00:12:25;;;;;;;22.35;7.10;;;11.80;99.90;;;;;;5117514;28;20070;-85
2023/05/28 00:14:51;;;;;;;21.00;7.35;;;11.80;99.90;;;;;;5117478;28;20398;-84
2023/05/28 00:17:17;;;;;;;30.45;7.72;;;11.80;99.90;;;;;;5117349;28;20042;-86
2023/05/28 00:19:43;;;;;;;21.98;8.07;;;11.80;99.90;;;;;;5098784;28;20485;-83
2023/05/28 00:22:09;;;;;;;27.08;8.35;;;11.80;99.90;;;;;;5099025;28;20043;-84
2023/05/28 00:24:35;;;;;;;25.30;8.05;;;11.80;99.90;;;;;;5117162;28;20085;-84
2023/05/28 00:27:05;;;;;;;27.50;8.40;;;11.80;99.90;;;;;;5098973;28;20039;-84
2023/05/28 00:29:31;;;;;;;24.33;7.78;;;11.80;99.90;;;;;;5098998;28;20085;-84
2023/05/28 00:31:57;;;;;;;26.08;8.35;;;11.80;99.90;;;;;;5117102;28;20036;-84
2023/05/28 00:34:24;;;;;;;21.30;7.28;;;11.70;99.90;;;;;;5098641;28;20055;-85
2023/05/28 00:36:50;;;;;;;20.75;7.63;;;11.70;99.90;;;;;;5116973;28;20130;-84
2023/05/28 00:39:17;;;;;;;21.30;7.55;;;11.70;99.90;;;;;;5098598;28;20044;-84
2023/05/28 00:41:43;;;;;;;19.50;6.88;;;11.80;99.90;;;;;;5097169;28;20044;-84
2023/05/28 00:44:12;;;;;;;18.65;6.47;;;11.80;99.90;;;;;;5098478;28;20051;-84
2023/05/28 00:46:40;;;;;;;21.65;6.68;;;11.90;99.90;;;;;;5098489;28;20525;-85
2023/05/28 00:49:07;;;;;;;23.55;6.97;;;12.10;99.90;;;;;;5116689;28;20378;-84
2023/05/28 00:51:35;;;;;;;19.30;7.93;;;12.10;99.90;;;;;;5116842;28;20048;-84
2023/05/28 00:54:01;;;;;;;22.00;6.50;;;12.00;99.90;;;;;;5116979;28;20048;-85
2023/05/28 00:56:28;;;;;;;17.63;6.40;;;12.00;99.90;;;;;;5098378;28;20502;-84
2023/05/28 00:58:55;;;;;;;23.00;6.68;;;12.10;99.90;;;;;;5098163;28;20075;-84
2023/05/28 01:01:26;;;;;;;19.13;6.53;;;12.00;99.90;;;;;;5098263;28;20058;-84
2023/05/28 01:03:54;;;;;;;23.77;7.85;;;12.10;99.90;;;;;;5098498;28;20040;-83
2023/05/28 01:06:21;;;;;;;20.00;6.45;;;12.10;99.90;;;;;;5098053;28;20059;-83
2023/05/28 01:08:48;;;;;;;17.40;6.78;;;12.10;99.90;;;;;;5097748;28;20055;-82
2023/05/28 01:11:18;;;;;;;18.52;5.85;;;12.00;99.90;;;;;;5097973;28;20047;-84
2023/05/28 01:13:45;;;;;;;25.33;6.18;;;12.00;99.90;;;;;;5098242;28;20115;-83
2023/05/28 01:16:11;;;;;;;24.02;7.72;;;12.00;99.90;;;;;;5098256;28;20044;-83
2023/05/28 01:18:39;;;;;;;20.85;6.80;;;12.00;99.90;;;;;;5116112;28;20047;-83
2023/05/28 01:21:06;;;;;;;19.30;6.22;;;11.90;99.90;;;;;;5097993;28;20047;-84
2023/05/28 01:23:43;;;;;;;24.42;6.10;;;11.90;99.90;;;;;;5116199;28;20039;-83
2023/05/28 01:26:10;;;;;;;20.17;7.22;;;12.00;99.90;;;;;;5116065;28;20043;-82
2023/05/28 01:28:36;;;;;;;18.25;6.72;;;11.90;99.90;;;;;;5116096;28;20071;-84
2023/05/28 01:31:01;;;;;;;19.25;6.53;;;11.90;99.90;;;;;;5097755;28;20137;-86
2023/05/28 01:33:27;;;;;;;20.85;6.18;;;11.80;99.90;;;;;;5115611;28;20069;-85
2023/05/28 01:35:57;;;;;;;24.42;7.15;;;11.80;99.90;;;;;;5115879;28;20113;-85
2023/05/28 01:38:24;;;;;;;22.17;7.07;;;11.80;99.90;;;;;;5097674;28;20050;-84
2023/05/28 01:40:53;;;;;;;22.73;6.60;;;11.80;99.90;;;;;;5115716;28;20062;-84
2023/05/28 01:43:19;;;;;;;18.67;6.28;;;11.80;99.90;;;;;;5115823;28;20043;-84
2023/05/28 01:45:46;;;;;;;26.20;7.18;;;11.70;99.90;;;;;;5115619;28;20071;-85
2023/05/28 01:48:12;;;;;;;18.77;7.20;;;11.70;99.90;;;;;;5115970;28;20145;-84
2023/05/28 01:50:38;;;;;;;15.65;6.18;;;11.70;99.90;;;;;;5097263;28;20051;-84
2023/05/28 01:53:04;;;;;;;24.67;7.20;;;11.70;99.90;;;;;;5096847;28;20047;-83
2023/05/28 01:55:29;;;;;;;23.13;7.20;;;11.70;99.90;;;;;;5097102;28;20054;-83
2023/05/28 01:57:55;;;;;;;17.63;6.10;;;11.70;99.90;;;;;;5097218;28;20036;-83
2023/05/28 02:00:22;;;;;;;25.77;6.93;;;11.60;99.90;;;;;;5115277;28;20055;-83
2023/05/28 02:02:48;;;;;;;23.50;7.25;;;11.60;99.90;;;;;;5115107;28;20055;-86
2023/05/28 02:05:17;;;;;;;28.27;6.43;;;11.60;99.90;;;;;;5115346;28;20157;-85
2023/05/28 02:07:42;;;;;;;20.17;6.85;;;11.60;99.90;;;;;;5115325;28;20149;-84
2023/05/28 02:10:08;;;;;;;20.33;6.50;;;11.60;99.90;;;;;;5095626;28;20064;-84
2023/05/28 02:12:34;;;;;;;25.17;6.97;;;11.60;99.90;;;;;;5096768;28;20122;-85
2023/05/28 02:15:00;;;;;;;20.05;6.80;;;11.60;99.90;;;;;;5096815;28;20204;-85
2023/05/28 02:17:26;;;;;;;21.00;6.07;;;11.60;99.90;;;;;;5114946;28;20042;-85
2023/05/28 02:19:51;;;;;;;16.90;6.68;;;11.50;99.90;;;;;;5096562;28;20050;-84
2023/05/28 02:22:17;;;;;;;23.08;6.40;;;11.50;99.90;;;;;;5115038;28;20040;-85
2023/05/28 02:24:46;;;;;;;28.30;6.75;;;11.50;99.90;;;;;;5096513;28;20105;-85
2023/05/28 02:27:12;;;;;;;19.83;6.53;;;11.50;99.90;;;;;;5096873;28;20493;-84
2023/05/28 02:29:38;;;;;;;20.67;6.85;;;11.50;99.90;;;;;;5096651;28;20131;-85
2023/05/28 02:32:04;;;;;;;20.45;6.70;;;11.40;99.90;;;;;;5096349;28;20153;-85
2023/05/28 02:34:31;;;;;;;21.75;6.95;;;11.40;99.90;;;;;;5114443;28;20380;-86
2023/05/28 02:37:00;;;;;;;18.15;6.45;;;11.40;99.90;;;;;;5114742;28;20039;-85
2023/05/28 02:39:25;;;;;;;20.80;6.38;;;11.40;99.90;;;;;;5114530;28;20398;-84
2023/05/28 02:41:51;;;;;;;21.05;6.65;;;11.40;99.90;;;;;;5114650;28;20526;-84
2023/05/28 02:44:17;;;;;;;19.42;6.32;;;11.30;99.90;;;;;;5114535;28;20047;-85
2023/05/28 02:46:45;;;;;;;20.27;6.32;;;11.30;99.90;;;;;;5096499;28;20474;-85
2023/05/28 02:49:11;;;;;;;22.75;6.68;;;11.30;99.90;;;;;;5114616;28;20072;-84
2023/05/28 02:51:37;;;;;;;19.02;6.30;;;11.30;99.90;;;;;;5114401;28;20051;-84
2023/05/28 02:54:02;;;;;;;19.52;6.60;;;11.30;99.90;;;;;;5114228;28;20075;-84
2023/05/28 02:56:28;;;;;;;24.75;7.60;;;11.20;99.90;;;;;;5114422;28;20036;-83
2023/05/28 02:58:54;;;;;;;26.63;7.43;;;11.30;99.90;;;;;;5114260;28;20067;-84
2023/05/28 03:01:19;;;;;;;20.67;6.47;;;11.30;99.90;;;;;;5114172;28;20040;-84
2023/05/28 03:03:48;;;;;;;17.73;6.55;;;11.30;99.90;;;;;;5113567;28;20093;-84
2023/05/28 03:06:14;;;;;;;20.25;7.15;;;11.20;99.90;;;;;;5096231;28;20391;-84
2023/05/28 03:08:39;;;;;;;18.20;6.50;;;11.20;99.90;;;;;;5114296;28;20107;-84
2023/05/28 03:11:05;;;;;;;17.98;6.75;;;11.20;99.90;;;;;;5095977;28;20086;-84
2023/05/28 03:13:30;;;;;;;21.15;6.50;;;11.20;99.90;;;;;;5113749;28;20048;-84
2023/05/28 03:15:58;;;;;;;18.00;6.45;;;11.20;99.90;;;;;;5095595;28;20082;-85
2023/05/28 03:18:24;;;;;;;16.00;5.50;;;11.20;99.90;;;;;;5095414;28;20043;-84
2023/05/28 03:20:50;;;;;;;17.60;5.60;;;11.20;99.90;;;;;;5095047;28;20088;-84
2023/05/28 03:23:16;;;;;;;24.20;7.40;;;11.20;99.90;;;;;;5112276;28;20048;-83
2023/05/28 03:25:42;;;;;;;18.13;5.43;;;11.20;99.90;;;;;;5113336;28;20042;-83
2023/05/28 03:28:07;;;;;;;17.73;6.75;;;11.20;99.90;;;;;;5113869;28;20051;-84
2023/05/28 03:30:33;;;;;;;22.20;7.28;;;11.20;99.90;;;;;;5095791;28;20047;-83
2023/05/28 03:32:59;;;;;;;20.00;6.82;;;11.10;99.90;;;;;;5095299;28;20048;-85
2023/05/28 03:35:25;;;;;;;19.90;6.03;;;11.10;99.90;;;;;;5113919;28;20121;-83
2023/05/28 03:37:50;;;;;;;18.63;6.75;;;11.10;99.90;;;;;;5095469;28;20498;-83
2023/05/28 03:40:16;;;;;;;21.38;6.18;;;11.20;99.90;;;;;;5113611;28;20089;-83
2023/05/28 03:42:45;;;;;;;17.65;5.82;;;11.20;99.90;;;;;;5095400;28;20089;-83
2023/05/28 03:45:10;;;;;;;21.00;6.18;;;11.20;99.90;;;;;;5095644;28;20043;-83
2023/05/28 03:47:36;;;;;;;19.38;5.70;;;11.20;99.90;;;;;;5095292;28;20047;-85
2023/05/28 03:50:04;;;;;;;20.33;6.43;;;11.30;99.90;;;;;;5095355;28;20048;-83
2023/05/28 03:52:30;;;;;;;19.65;5.55;;;11.30;99.90;;;;;;5095255;28;20046;-84
2023/05/28 03:54:55;;;;;;;17.88;7.22;;;11.30;99.90;;;;;;5113491;28;20044;-83
2023/05/28 03:57:21;;;;;;;18.77;6.78;;;11.40;99.90;;;;;;5095239;28;20093;-84
2023/05/28 03:59:47;;;;;;;20.08;6.15;;;11.40;99.90;;;;;;5095165;28;20044;-83
2023/05/28 04:02:12;;;;;;;25.55;6.53;;;11.50;99.90;;;;;;5113663;28;20065;-83
2023/05/28 04:04:38;;;;;;;24.27;7.38;;;11.50;99.90;;;;;;5095229;28;20047;-84
2023/05/28 04:07:04;;;;;;;22.50;6.18;;;11.60;99.90;;;;;;5095641;28;20074;-84
2023/05/28 04:09:30;;;;;;;20.27;6.25;;;11.60;99.90;;;;;;5113461;28;20101;-84
2023/05/28 04:11:58;;;;;;;17.13;6.35;;;11.80;99.90;;;;;;5113596;28;20078;-85
2023/05/28 04:14:25;;;;;;;16.60;6.05;;;11.80;99.90;;;;;;5113503;28;20057;-85
2023/05/28 04:16:51;;;;;;;23.23;6.85;;;11.90;99.90;;;;;;5098788;28;20469;-85
2023/05/28 04:19:16;;;;;;;19.92;5.85;;;12.00;99.90;;;;;;5098854;28;20483;-84
2023/05/28 04:21:42;;;;;;;20.50;5.75;;;12.00;99.90;;;;;;5117338;28;20039;-84
2023/05/28 04:24:08;;;;;;;16.75;6.22;;;12.10;99.90;;;;;;5098730;28;20043;-84
2023/05/28 04:26:34;;;;;;;24.33;7.05;;;12.20;99.90;;;;;;5098685;28;20173;-83
2023/05/28 04:29:02;;;;;;;20.63;7.00;;;12.30;99.90;;;;;;5098581;28;20050;-83
2023/05/28 04:31:28;;;;;;;20.15;6.10;;;12.30;99.90;;;;;;5098581;28;20043;-83
2023/05/28 04:33:55;;;;;;;22.27;6.72;;;12.30;99.90;;;;;;5116606;28;20100;-83
2023/05/28 04:36:29;;;;;;;23.65;6.68;;;12.40;99.90;;;;;;5098428;28;20525;-83
2023/05/28 04:38:56;;;;;;;14.75;5.88;;;12.40;99.90;;;;;;5098269;28;20108;-87
2023/05/28 04:41:23;;;;;;;22.50;6.47;;;12.50;99.90;;;;;;5098373;28;20059;-83
2023/05/28 04:43:49;;;;;;;26.48;6.18;;;12.60;99.90;;;;;;5098220;28;20070;-86
2023/05/28 04:46:18;;;;;;;17.80;6.32;;;12.60;99.90;;;;;;5098282;28;20059;-84
2023/05/28 04:48:47;;;;;;;17.50;6.18;;;12.70;99.90;;;;;;5098522;28;20055;-84
2023/05/28 04:51:13;;;;;;;19.42;5.90;;;12.70;99.90;;;;;;5116516;28;20077;-83
2023/05/28 04:53:39;;;;;;;18.17;5.95;;;12.70;99.90;;;;;;5116702;28;20039;-83
2023/05/28 04:56:05;;;;;;;18.23;6.38;;;12.80;99.90;;;;;;5116392;28;20044;-84
2023/05/28 04:58:30;;;;;;;19.70;6.03;;;13.00;99.90;;;;;;5116657;28;20051;-84
2023/05/28 05:00:56;;;;;;;22.25;5.53;;;13.00;99.90;;;;;;5097988;28;20134;-84
2023/05/28 05:03:22;;;;;;;20.85;6.30;;;13.10;99.90;;;;;;5116605;28;20118;-84
2023/05/28 05:05:47;;;;;;;21.27;6.45;;;13.20;99.90;;;;;;5098379;28;20123;-84
2023/05/28 05:08:13;;;;;;;19.48;5.78;;;13.30;99.90;;;;;;5116460;28;20367;-84
2023/05/28 05:10:39;;;;;;;18.90;5.90;;;13.40;99.90;;;;;;5116801;28;20071;-84
2023/05/28 05:13:05;;;;;;;19.60;6.25;;;13.40;99.90;;;;;;5098273;28;20047;-82
2023/05/28 05:15:32;;;;;;;20.45;5.68;;;13.50;99.90;;;;;;5116150;28;20063;-83
2023/05/28 05:17:58;;;;;;;14.95;5.32;;;13.60;99.90;;;;;;5097734;28;20058;-83
2023/05/28 05:20:27;;;;;;;20.30;6.03;;;13.70;99.90;;;;;;5097565;28;20047;-83
2023/05/28 05:22:52;;;;;;;13.73;5.45;;;13.80;99.90;;;;;;5097834;28;20087;-83
2023/05/28 05:25:20;;;;;;;20.38;5.97;;;13.60;99.90;;;;;;5112716;28;20047;-82
2023/05/28 05:27:50;;;;;;;21.05;5.55;;;13.80;99.90;;;;;;5093667;28;20395;-84
2023/05/28 05:30:16;;;;;;;19.75;5.90;;;13.90;99.90;;;;;;5094071;28;20044;-84
2023/05/28 05:32:41;;;;;;;18.42;5.60;;;13.70;99.90;;;;;;5093819;28;20162;-84
2023/05/28 05:35:09;;;;;;;19.92;5.90;;;13.80;99.90;;;;;;5093953;28;20052;-84
2023/05/28 05:37:35;;;;;;;19.67;5.80;;;13.80;99.90;;;;;;5094210;28;20051;-84
2023/05/28 05:40:04;;;;;;;17.25;5.95;;;13.80;99.90;;;;;;5093914;28;20067;-84
2023/05/28 05:42:30;;;;;;;21.95;6.13;;;14.00;99.90;;;;;;5095117;28;20040;-85
2023/05/28 05:44:55;;;;;;;21.60;5.53;;;13.90;99.90;;;;;;5095422;28;20036;-86
2023/05/28 05:47:21;;;;;;;13.40;5.47;;;14.00;99.90;;;;;;5094998;28;20040;-85
2023/05/28 05:49:47;;;;;;;21.38;6.70;;;14.00;99.90;;;;;;5093959;28;20391;-86
2023/05/28 05:52:12;;;;;;;17.33;6.90;;;14.10;99.90;;;;;;5093675;28;20040;-85
2023/05/28 05:54:38;;;;;;;19.88;6.45;;;14.10;99.90;;;;;;5093640;28;20097;-85
2023/05/28 05:57:07;;;;;;;18.05;5.65;;;14.20;99.90;;;;;;5094997;28;20043;-86
2023/05/28 05:59:32;;;;;;;17.88;6.30;;;14.30;99.90;;;;;;5094869;28;20121;-88
2023/05/28 06:01:58;;;;;;;22.30;6.68;;;14.30;99.90;;;;;;5094979;28;20067;-84
2023/05/28 06:04:24;;;;;;;20.55;6.50;;;14.40;99.90;;;;;;5094719;28;20047;-85
2023/05/28 06:06:49;;;;;;;18.52;6.30;;;14.60;99.90;;;;;;5094875;28;20044;-85
2023/05/28 06:09:16;;;;;;;20.00;6.30;;;14.50;99.90;;;;;;5094702;28;20043;-85
2023/05/28 06:11:45;;;;;;;13.52;5.22;;;14.60;99.90;;;;;;5093463;28;20388;-85
2023/05/28 06:14:10;;;;;;;20.25;6.03;;;14.90;99.90;;;;;;5094639;28;20101;-84
2023/05/28 06:16:36;;;;;;;18.95;5.72;;;15.00;99.90;;;;;;5093162;28;20040;-85
2023/05/28 06:19:02;;;;;;;17.30;5.50;;;15.00;99.90;;;;;;5092080;28;20143;-85
2023/05/28 06:21:30;;;;;;;17.33;5.70;;;15.00;99.90;;;;;;5094655;28;20059;-86
2023/05/28 06:23:56;;;;;;;19.45;4.93;;;15.20;99.90;;;;;;5093063;28;20480;-85
2023/05/28 06:26:22;;;;;;;17.60;5.43;;;15.30;99.90;;;;;;5094349;28;20085;-85
2023/05/28 06:28:47;;;;;;;17.80;5.70;;;15.00;99.90;;;;;;5094584;28;20044;-87
2023/05/28 06:31:13;;;;;;;14.70;5.15;;;15.30;99.90;;;;;;5092916;28;20051;-85
2023/05/28 06:33:39;;;;;;;14.35;5.82;;;15.40;99.90;;;;;;5093894;28;20052;-85
2023/05/28 06:36:06;;;;;;;19.10;6.38;;;15.40;99.90;;;;;;5092855;28;20055;-84
2023/05/28 06:38:32;;;;;;;20.33;5.53;;;15.50;99.90;;;;;;5094095;28;20178;-84
2023/05/28 06:40:58;;;;;;;19.45;5.00;;;15.90;99.90;;;;;;5096441;27;20126;-83
2023/05/28 06:43:23;;;;;;;15.20;5.85;;;15.90;99.90;;;;;;5095752;28;20036;-80
2023/05/28 06:45:49;;;;;;;16.42;7.18;;;15.90;99.90;;;;;;5114144;28;20073;-79
2023/05/28 06:48:15;;;;;;;19.20;5.78;;;16.10;99.90;;;;;;5094527;28;20426;-83
2023/05/28 06:50:40;;;;;;;11.40;5.30;;;16.00;99.90;;;;;;5096153;28;20496;-85
2023/05/28 06:53:07;;;;;;;15.65;4.72;;;16.20;99.90;;;;;;5096155;28;20035;-87
2023/05/28 06:55:33;;;;;;;15.50;5.93;;;16.30;99.90;;;;;;5096086;28;20051;-86
2023/05/28 06:57:58;;;;;;;17.80;5.80;;;16.10;99.90;;;;;;5096004;28;20051;-85
2023/05/28 07:00:25;;;;;;;15.75;5.68;;;16.20;99.90;;;;;;5095724;28;20043;-87
2023/05/28 07:02:53;;;;;;;16.63;5.28;;;16.40;99.90;;;;;;5113765;28;20134;-85
2023/05/28 07:05:22;;;;;;;15.90;5.43;;;16.20;99.90;;;;;;5095585;28;20051;-81
2023/05/28 07:07:48;;;;;;;20.60;5.13;;;16.20;99.90;;;;;;5095639;28;20079;-81
2023/05/28 07:10:14;;;;;;;19.35;6.00;;;16.10;99.90;;;;;;5095584;28;20065;-80
2023/05/28 07:12:39;;;;;;;13.85;4.93;;;16.50;99.90;;;;;;5095740;28;20051;-81
2023/05/28 07:15:06;;;;;;;18.60;4.75;;;16.40;99.90;;;;;;5113787;28;20419;-84
2023/05/28 07:17:32;;;;;;;12.43;5.00;;;16.60;99.90;;;;;;5113913;28;20043;-80
2023/05/28 07:19:57;;;;;;;15.63;5.15;;;16.80;99.90;;;;;;5113615;28;20192;-85
2023/05/28 07:22:24;;;;;;;17.73;5.50;;;16.70;99.90;;;;;;5095559;28;20043;-85
2023/05/28 07:24:50;;;;;;;17.13;6.18;;;16.60;99.90;;;;;;5095389;28;20099;-86
2023/05/28 07:27:15;;;;;;;14.88;5.20;;;16.40;99.90;;;;;;5095377;28;20127;-80
2023/05/28 07:29:41;;;;;;;13.85;4.80;;;16.40;99.90;;;;;;5113421;28;20120;-80
2023/05/28 07:32:07;;;;;;;17.60;6.32;;;16.50;99.90;;;;;;5113934;28;20035;-82
2023/05/28 07:34:33;;;;;;;17.35;4.88;;;16.80;99.90;;;;;;5095272;28;20048;-84
2023/05/28 07:36:59;;;;;;;16.33;5.63;;;16.80;99.90;;;;;;5113544;28;20491;-85
2023/05/28 07:39:27;;;;;;;19.38;5.15;;;16.60;99.90;;;;;;5113631;28;20082;-86
2023/05/28 07:41:53;;;;;;;16.42;5.45;;;16.90;99.90;;;;;;5095184;28;20040;-84
2023/05/28 07:44:19;;;;;;;19.65;6.45;;;16.50;99.90;;;;;;5095456;28;20109;-82
2023/05/28 07:46:45;;;;;;;18.60;6.63;;;16.50;99.90;;;;;;5095156;28;20126;-82
2023/05/28 07:49:10;;;;;;;20.10;7.68;;;16.50;99.90;;;;;;5113489;28;20285;-82
2023/05/28 07:51:36;;;;;;;22.42;7.10;;;16.30;99.90;;;;;;5099282;28;20083;-81
2023/05/28 07:54:02;;;;;;;18.38;6.68;;;16.40;99.90;;;;;;5099198;28;20086;-82
2023/05/28 07:56:28;;;;;;;14.68;6.53;;;16.40;99.90;;;;;;5099151;28;20490;-81
2023/05/28 07:58:53;;;;;;;15.52;6.75;;;16.90;99.90;;;;;;5099020;28;20089;-82
2023/05/28 08:01:20;;;;;;;17.52;6.47;;;17.10;99.90;;;;;;5098943;28;20044;-84
2023/05/28 08:03:50;;;;;;;14.23;7.15;;;17.10;99.90;;;;;;5099021;28;20126;-83
2023/05/28 08:06:19;;;;;;;22.35;7.85;;;17.40;99.90;;;;;;5099009;28;20047;-84
2023/05/28 08:08:45;;;;;;;19.73;6.85;;;17.70;99.90;;;;;;5099103;28;20055;-84
2023/05/28 08:11:13;;;;;;;18.48;7.57;;;17.90;99.90;;;;;;5098675;28;20495;-84
2023/05/28 08:13:39;;;;;;;21.88;7.80;;;17.80;99.90;;;;;;5117407;28;20051;-84
2023/05/28 08:16:05;;;;;;;19.10;7.72;;;17.90;99.90;;;;;;5098711;28;20050;-84
2023/05/28 08:18:31;;;;;;;21.58;7.72;;;17.80;99.90;;;;;;5098544;28;20047;-83
2023/05/28 08:20:57;;;;;;;18.75;7.78;;;17.40;99.90;;;;;;5098644;28;20048;-84
2023/05/28 08:23:22;;;;;;;19.17;7.07;;;17.60;99.90;;;;;;5098736;28;20036;-83
2023/05/28 08:25:48;;;;;;;21.33;6.93;;;17.20;99.90;;;;;;5116706;28;20052;-82
2023/05/28 08:28:17;;;;;;;19.90;6.75;;;17.10;99.90;;;;;;5098477;28;20118;-82
2023/05/28 08:30:45;;;;;;;14.35;6.18;;;17.60;99.90;;;;;;5098758;28;20070;-82
2023/05/28 08:33:11;;;;;;;17.38;6.55;;;17.40;99.90;;;;;;5098188;28;20120;-84
2023/05/28 08:35:37;;;;;;;16.02;6.40;;;17.90;99.90;;;;;;5116975;28;20036;-83
2023/05/28 08:38:02;;;;;;;15.90;6.03;;;17.80;99.90;;;;;;5098499;28;20039;-83
2023/05/28 08:40:31;;;;;;;14.05;5.72;;;17.60;99.90;;;;;;5098399;28;20036;-81
2023/05/28 08:42:56;;;;;;;11.90;6.00;;;18.00;99.90;;;;;;5116772;28;20044;-83
2023/05/28 08:45:22;;;;;;;14.43;5.38;;;18.20;99.90;;;;;;5098251;28;20054;-83
2023/05/28 08:47:49;;;;;;;17.42;6.82;;;18.40;99.90;;;;;;5116516;28;20123;-82
2023/05/28 08:50:16;;;;;;;14.73;6.32;;;17.80;99.90;;;;;;5116365;28;20047;-82
2023/05/28 08:52:44;;;;;;;15.25;5.72;;;17.90;99.90;;;;;;5116262;28;20061;-85
2023/05/28 08:55:10;;;;;;;12.82;5.18;;;18.30;99.90;;;;;;5098010;28;20058;-83
2023/05/28 08:57:38;;;;;;;13.48;4.78;;;18.60;99.90;;;;;;5116573;28;20040;-84
2023/05/28 09:00:08;;;;;;;8.15;4.30;;;18.30;99.90;;;;;;5116258;28;20111;-84
2023/05/28 09:02:34;;;;;;;12.60;4.97;;;18.40;99.90;;;;;;5115323;28;20040;-82
2023/05/28 09:05:00;;;;;;;13.43;4.97;;;18.70;99.90;;;;;;5097924;28;20083;-88
2023/05/28 09:07:26;;;;;;;11.95;4.97;;;19.00;99.90;;;;;;5097737;28;20047;-87
2023/05/28 09:09:52;;;;;;;14.18;4.88;;;18.30;99.90;;;;;;5098010;28;20049;-86
2023/05/28 09:12:21;;;;;;;13.45;4.70;;;18.60;99.90;;;;;;5116196;28;20050;-85
2023/05/28 09:14:51;;;;;;;13.50;4.82;;;18.80;99.90;;;;;;5115986;28;20097;-84
2023/05/28 09:17:16;;;;;;;13.43;5.00;;;19.10;99.90;;;;;;5115772;28;20386;-86
2023/05/28 09:19:54;;;;;;;12.70;4.70;;;19.10;99.90;;;;;;5115792;28;20044;-87
2023/05/28 09:22:20;;;;;;;12.07;4.38;;;19.00;99.90;;;;;;5097675;28;20043;-86
2023/05/28 09:24:49;;;;;;;11.15;4.28;;;18.90;99.90;;;;;;5097678;28;20342;-85
2023/05/28 09:27:19;;;;;;;13.75;5.20;;;19.00;99.90;;;;;;5116361;28;20146;-92
2023/05/28 09:29:46;;;;;;;9.38;4.53;;;18.40;99.90;;;;;;5115522;28;20498;-85
2023/05/28 09:32:16;;;;;;;10.25;4.10;;;18.70;99.90;;;;;;5115581;28;20051;-85
2023/05/28 09:34:42;;;;;;;9.25;3.40;;;18.90;99.90;;;;;;5096998;28;20056;-88
2023/05/28 09:37:08;;;;;;;11.70;4.18;;;19.10;99.90;;;;;;5097558;28;20448;-85
2023/05/28 09:39:37;;;;;;;13.18;4.95;;;19.30;99.90;;;;;;5097268;28;20050;-84
2023/05/28 09:42:09;;;;;;;13.93;4.68;;;19.60;99.90;;;;;;5097163;28;20051;-88
2023/05/28 09:44:36;;;;;;;12.68;4.82;;;19.10;99.90;;;;;;5097306;28;20483;-86
2023/05/28 09:47:21;;;;;;;15.45;4.82;;;19.40;99.90;;;;;;5096927;28;20048;-86
2023/05/28 09:49:49;;;;;;;10.95;3.92;;;19.40;99.90;;;;;;5097256;28;20039;-84
2023/05/28 09:52:23;;;;;;;14.25;4.78;;;19.70;99.90;;;;;;5115515;28;20043;-86
2023/05/28 09:54:53;;;;;;;12.30;4.05;;;19.60;99.90;;;;;;5096965;28;20040;-84
2023/05/28 09:57:33;;;;;;;10.15;4.85;;;19.60;99.90;;;;;;5096648;28;20121;-85
2023/05/28 10:00:11;;;;;;;14.23;5.18;;;19.70;99.90;;;;;;5115276;28;20122;-84
2023/05/28 10:03:28;;;;;;;12.02;4.88;;;19.70;99.90;;;;;;5096778;28;20512;-85
2023/05/28 10:05:59;;;;;;;11.02;4.55;;;19.60;99.90;;;;;;5032457;28;20054;-84
2023/05/28 10:08:26;;;;;;;13.52;4.53;;;20.00;99.90;;;;;;5032398;28;20467;-84
2023/05/28 10:10:53;;;;;;;12.90;5.20;;;20.00;99.90;;;;;;5097787;27;20134;-88
2023/05/28 10:13:20;;;;;;;15.57;5.95;;;20.00;99.90;;;;;;5114772;28;20044;-92
2023/05/28 10:15:46;;;;;;;13.55;5.30;;;20.20;99.90;;;;;;5096536;28;20506;-84
2023/05/28 10:18:14;;;;;;;19.27;5.30;;;19.90;99.90;;;;;;5114591;28;20056;-82
2023/05/28 10:20:43;;;;;;;12.07;5.00;;;20.30;99.90;;;;;;5096457;28;20051;-85
2023/05/28 10:23:10;;;;;;;11.75;4.72;;;20.20;99.90;;;;;;5096215;28;20044;-85
2023/05/28 10:25:36;;;;;;;10.93;4.20;;;20.30;99.90;;;;;;5096292;28;20069;-84
2023/05/28 10:28:02;;;;;;;9.90;4.55;;;20.50;99.90;;;;;;5114528;28;20402;-80
2023/05/28 10:30:36;;;;;;;11.30;4.43;;;20.40;99.90;;;;;;5096270;28;20039;-80
2023/05/28 10:33:08;;;;;;;11.32;4.18;;;20.20;99.90;;;;;;5095964;28;20105;-82
2023/05/28 10:35:53;;;;;;;15.80;5.15;;;19.80;99.90;;;;;;5114645;28;20047;-80
2023/05/28 10:38:19;;;;;;;12.25;4.38;;;20.00;99.90;;;;;;5114651;28;20031;-87
2023/05/28 10:40:45;;;;;;;10.57;4.60;;;19.90;99.90;;;;;;5114199;28;20077;-84
2023/05/28 10:43:37;;;;;;;13.23;4.90;;;19.80;99.90;;;;;;5094058;27;20051;-87
2023/05/28 10:46:03;;;;;;;12.05;5.60;;;19.80;99.90;;;;;;5085268;28;20552;-88
2023/05/28 10:48:32;;;;;;;11.52;4.90;;;19.70;99.90;;;;;;5113705;27;20047;-86
2023/05/28 10:51:00;;;;;;;10.60;4.35;;;19.90;99.90;;;;;;5115393;27;20494;-86
2023/05/28 10:53:27;;;;;;;13.35;4.90;;;20.30;99.90;;;;;;5116391;27;20043;-83
2023/05/28 10:55:54;;;;;;;13.40;4.47;;;20.30;99.90;;;;;;5114334;27;20090;-82
2023/05/28 10:58:33;;;;;;;14.43;4.63;;;20.10;99.90;;;;;;5098646;28;20053;-84
2023/05/28 11:01:22;;;;;;;15.65;4.47;;;20.30;99.90;;;;;;5095643;28;20149;-83
2023/05/28 11:03:53;;;;;;;14.25;4.35;;;20.40;99.90;;;;;;5095616;28;20050;-87
2023/05/28 11:06:19;;;;;;;11.25;4.30;;;19.70;99.90;;;;;;5095492;28;20036;-85
2023/05/28 11:08:47;;;;;;;12.77;4.13;;;19.40;99.90;;;;;;5097910;27;20093;-81
2023/05/28 11:11:14;;;;;;;14.25;4.65;;;19.90;99.90;;;;;;5131681;27;20079;-85
2023/05/28 11:13:48;;;;;;;9.85;4.15;;;19.70;99.90;;;;;;5115226;27;20051;-86
2023/05/28 11:16:18;;;;;;;13.45;4.40;;;20.20;99.90;;;;;;5115821;27;20050;-83
2023/05/28 11:19:04;;;;;;;12.82;4.32;;;20.30;99.90;;;;;;5115353;27;20047;-86
2023/05/28 11:21:30;;;;;;;10.48;4.30;;;20.00;99.90;;;;;;5115840;28;20410;-82
2023/05/28 11:24:00;;;;;;;12.45;3.75;;;20.40;99.90;;;;;;5134014;27;20432;-84
2023/05/28 11:26:27;;;;;;;12.07;4.53;;;20.50;99.90;;;;;;5114871;28;20047;-85
2023/05/28 11:28:53;;;;;;;17.95;4.60;;;20.70;99.90;;;;;;5134150;28;20079;-82
2023/05/28 11:31:19;;;;;;;14.55;4.00;;;20.60;99.90;;;;;;5115693;28;20074;-81
2023/05/28 11:33:52;;;;;;;11.25;3.95;;;20.80;99.90;;;;;;5133860;28;20055;-84
2023/05/28 11:36:21;;;;;;;12.65;4.07;;;20.60;99.90;;;;;;5115779;28;20047;-83
2023/05/28 11:38:47;;;;;;;14.30;3.97;;;20.80;99.90;;;;;;5134226;28;20058;-79
2023/05/28 11:41:13;;;;;;;17.58;4.63;;;20.80;99.90;;;;;;5133876;28;20043;-84
2023/05/28 11:43:38;;;;;;;14.23;4.45;;;21.10;99.90;;;;;;5102315;28;20048;-88
2023/05/28 11:46:05;;;;;;;10.35;3.78;;;20.90;99.90;;;;;;5095260;28;20056;-79
2023/05/28 11:48:37;;;;;;;12.35;4.00;;;21.00;99.90;;;;;;5095099;28;20047;-81
2023/05/28 11:51:03;;;;;;;14.80;4.37;;;20.60;99.90;;;;;;5095430;28;20042;-80
2023/05/28 11:53:39;;;;;;;15.30;5.30;;;20.90;99.90;;;;;;5113295;28;20047;-80
2023/05/28 11:56:06;;;;;;;14.60;4.57;;;20.90;99.90;;;;;;5095107;28;20536;-83
2023/05/28 11:58:33;;;;;;;16.08;4.55;;;21.00;99.90;;;;;;5095246;28;20473;-77
2023/05/28 12:00:58;;;;;;;15.00;4.10;;;21.20;99.90;;;;;;5113217;28;20487;-86
2023/05/28 12:03:27;;;;;;;16.80;4.85;;;21.00;99.90;;;;;;5095149;28;20051;-79
2023/05/28 12:05:53;;;;;;;12.63;4.97;;;21.00;99.90;;;;;;5113316;28;20048;-83
2023/05/28 12:08:19;;;;;;;13.50;4.47;;;21.00;99.90;;;;;;5095250;28;20055;-84
2023/05/28 12:10:45;;;;;;;13.18;4.65;;;21.10;99.90;;;;;;5113479;28;20044;-84
2023/05/28 12:13:14;;;;;;;12.15;4.00;;;21.10;99.90;;;;;;5094843;28;20051;-85
2023/05/28 12:15:40;;;;;;;12.90;4.10;;;21.10;99.90;;;;;;5113570;28;20043;-86
2023/05/28 12:18:06;;;;;;;10.25;4.32;;;21.10;99.90;;;;;;5113599;28;20035;-86
2023/05/28 12:20:42;;;;;;;12.82;4.55;;;21.10;99.90;;;;;;5113223;28;20054;-85
2023/05/28 12:23:12;;;;;;;9.75;3.55;;;21.20;99.90;;;;;;5113278;28;20075;-86
2023/05/28 12:25:46;;;;;;;15.60;4.35;;;21.30;99.90;;;;;;5113509;28;20078;-85
2023/05/28 12:28:14;;;;;;;11.52;3.65;;;21.30;99.90;;;;;;5095120;28;20430;-85
2023/05/28 12:30:41;;;;;;;14.43;4.53;;;21.20;99.90;;;;;;5094956;28;20043;-85
2023/05/28 12:33:14;;;;;;;11.75;4.00;;;21.40;99.90;;;;;;5094882;28;20051;-85
2023/05/28 12:35:40;;;;;;;15.27;4.38;;;21.50;99.90;;;;;;5095629;28;20487;-85
2023/05/28 12:38:06;;;;;;;16.42;4.18;;;21.50;99.90;;;;;;5098663;28;20050;-84